sensor_id;sensor_type;location;lat;lon;timestamp;P1;durP1;ratioP1;P2;durP2;ratioP2
45962;SDS011;31669;49.892;20.818;2022-08-01T00:02:50;1.50;;;1.30;;
45962;SDS011;31669;49.892;20.818;2022-08-01T00:07:51;1.75;;;1.35;;
45962;SDS011;31669;49.892;20.818;2022-08-01T00:12:52;2.10;;;1.52;;
45962;SDS011;31669;49.892;20.818;2022-08-01T00:17:52;2.50;;;2.08;;
45962;SDS011;31669;49.892;20.818;2022-08-01T00:22:53;2.10;;;1.90;;
45962;SDS011;31669;49.892;20.818;2022-08-01T00:27:53;3.15;;;1.98;;
45962;SDS011;31669;49.892;20.818;2022-08-01T00:32:54;3.75;;;2.53;;
45962;SDS011;31669;49.892;20.818;2022-08-01T00:37:55;2.33;;;2.13;;
45962;SDS011;31669;49.892;20.818;2022-08-01T00:42:55;3.40;;;2.22;;
45962;SDS011;31669;49.892;20.818;2022-08-01T00:47:56;3.23;;;2.20;;
45962;SDS011;31669;49.892;20.818;2022-08-01T00:52:57;3.22;;;2.30;;
45962;SDS011;31669;49.892;20.818;2022-08-01T00:57:58;3.10;;;2.53;;
45962;SDS011;31669;49.892;20.818;2022-08-01T01:02:58;2.67;;;2.47;;
45962;SDS011;31669;49.892;20.818;2022-08-01T01:08:01;3.22;;;2.72;;
45962;SDS011;31669;49.892;20.818;2022-08-01T01:23:21;4.63;;;2.58;;
45962;SDS011;31669;49.892;20.818;2022-08-01T01:28:33;4.28;;;2.92;;
45962;SDS011;31669;49.892;20.818;2022-08-01T01:33:34;3.40;;;2.78;;
45962;SDS011;31669;49.892;20.818;2022-08-01T01:38:42;5.55;;;3.40;;
45962;SDS011;31669;49.892;20.818;2022-08-01T01:43:44;7.82;;;2.53;;
45962;SDS011;31669;49.892;20.818;2022-08-01T01:48:46;3.92;;;2.50;;
45962;SDS011;31669;49.892;20.818;2022-08-01T01:53:47;4.20;;;2.97;;
45962;SDS011;31669;49.892;20.818;2022-08-01T01:58:50;3.60;;;3.00;;
45962;SDS011;31669;49.892;20.818;2022-08-01T02:03:51;3.88;;;2.95;;
45962;SDS011;31669;49.892;20.818;2022-08-01T02:08:53;6.18;;;3.38;;
45962;SDS011;31669;49.892;20.818;2022-08-01T02:13:59;7.22;;;3.15;;
45962;SDS011;31669;49.892;20.818;2022-08-01T02:19:01;3.42;;;2.20;;
45962;SDS011;31669;49.892;20.818;2022-08-01T02:24:03;6.88;;;3.20;;
45962;SDS011;31669;49.892;20.818;2022-08-01T02:29:09;5.43;;;3.70;;
45962;SDS011;31669;49.892;20.818;2022-08-01T02:34:10;4.55;;;3.00;;
45962;SDS011;31669;49.892;20.818;2022-08-01T02:39:14;5.03;;;3.28;;
45962;SDS011;31669;49.892;20.818;2022-08-01T02:44:27;11.77;;;3.63;;
45962;SDS011;31669;49.892;20.818;2022-08-01T02:49:30;3.97;;;3.20;;
45962;SDS011;31669;49.892;20.818;2022-08-01T02:54:31;4.30;;;3.10;;
45962;SDS011;31669;49.892;20.818;2022-08-01T02:59:33;7.00;;;3.53;;
45962;SDS011;31669;49.892;20.818;2022-08-01T03:04:35;9.27;;;4.82;;
45962;SDS011;31669;49.892;20.818;2022-08-01T03:09:37;7.57;;;5.07;;
45962;SDS011;31669;49.892;20.818;2022-08-01T03:14:39;5.80;;;4.03;;
45962;SDS011;31669;49.892;20.818;2022-08-01T03:19:40;10.15;;;3.78;;
45962;SDS011;31669;49.892;20.818;2022-08-01T03:24:41;7.95;;;4.40;;
45962;SDS011;31669;49.892;20.818;2022-08-01T03:29:43;8.93;;;5.28;;
45962;SDS011;31669;49.892;20.818;2022-08-01T03:34:45;6.88;;;4.38;;
45962;SDS011;31669;49.892;20.818;2022-08-01T03:39:49;9.38;;;4.70;;
45962;SDS011;31669;49.892;20.818;2022-08-01T03:44:54;5.38;;;4.30;;
45962;SDS011;31669;49.892;20.818;2022-08-01T03:49:55;6.47;;;4.07;;
45962;SDS011;31669;49.892;20.818;2022-08-01T03:54:56;7.03;;;3.88;;
45962;SDS011;31669;49.892;20.818;2022-08-01T03:59:58;7.65;;;4.43;;
45962;SDS011;31669;49.892;20.818;2022-08-01T04:04:59;9.35;;;4.65;;
45962;SDS011;31669;49.892;20.818;2022-08-01T04:10:00;7.47;;;5.00;;
45962;SDS011;31669;49.892;20.818;2022-08-01T04:15:01;7.47;;;4.27;;
45962;SDS011;31669;49.892;20.818;2022-08-01T04:20:01;7.68;;;5.30;;
45962;SDS011;31669;49.892;20.818;2022-08-01T04:25:04;12.05;;;5.30;;
45962;SDS011;31669;49.892;20.818;2022-08-01T04:30:06;8.32;;;4.68;;
45962;SDS011;31669;49.892;20.818;2022-08-01T04:35:07;7.60;;;4.15;;
45962;SDS011;31669;49.892;20.818;2022-08-01T04:40:09;10.45;;;6.10;;
45962;SDS011;31669;49.892;20.818;2022-08-01T04:45:11;6.13;;;4.15;;
45962;SDS011;31669;49.892;20.818;2022-08-01T04:50:12;7.60;;;4.35;;
45962;SDS011;31669;49.892;20.818;2022-08-01T04:55:13;11.05;;;4.45;;
45962;SDS011;31669;49.892;20.818;2022-08-01T05:00:14;7.57;;;4.93;;
45962;SDS011;31669;49.892;20.818;2022-08-01T05:05:16;7.60;;;3.45;;
45962;SDS011;31669;49.892;20.818;2022-08-01T05:10:17;5.13;;;3.27;;
45962;SDS011;31669;49.892;20.818;2022-08-01T05:15:17;9.57;;;3.80;;
45962;SDS011;31669;49.892;20.818;2022-08-01T05:20:18;8.93;;;4.85;;
45962;SDS011;31669;49.892;20.818;2022-08-01T05:25:19;4.22;;;2.95;;
45962;SDS011;31669;49.892;20.818;2022-08-01T05:30:19;3.90;;;2.87;;
45962;SDS011;31669;49.892;20.818;2022-08-01T05:35:20;8.70;;;4.57;;
45962;SDS011;31669;49.892;20.818;2022-08-01T05:40:21;7.47;;;4.17;;
45962;SDS011;31669;49.892;20.818;2022-08-01T05:45:21;7.50;;;5.00;;
45962;SDS011;31669;49.892;20.818;2022-08-01T05:50:22;9.43;;;4.73;;
45962;SDS011;31669;49.892;20.818;2022-08-01T05:55:22;7.45;;;2.58;;
45962;SDS011;31669;49.892;20.818;2022-08-01T06:00:23;5.80;;;2.50;;
45962;SDS011;31669;49.892;20.818;2022-08-01T06:05:23;5.00;;;2.17;;
45962;SDS011;31669;49.892;20.818;2022-08-01T06:10:24;3.57;;;2.03;;
45962;SDS011;31669;49.892;20.818;2022-08-01T06:15:24;3.70;;;2.23;;
45962;SDS011;31669;49.892;20.818;2022-08-01T06:20:25;4.47;;;2.63;;
45962;SDS011;31669;49.892;20.818;2022-08-01T06:25:25;4.85;;;2.58;;
45962;SDS011;31669;49.892;20.818;2022-08-01T06:30:26;2.35;;;1.48;;
45962;SDS011;31669;49.892;20.818;2022-08-01T06:35:26;3.23;;;2.33;;
45962;SDS011;31669;49.892;20.818;2022-08-01T06:40:29;3.50;;;2.35;;
45962;SDS011;31669;49.892;20.818;2022-08-01T06:45:29;2.00;;;1.43;;
45962;SDS011;31669;49.892;20.818;2022-08-01T06:50:29;3.30;;;2.10;;
45962;SDS011;31669;49.892;20.818;2022-08-01T06:55:30;4.95;;;2.40;;
45962;SDS011;31669;49.892;20.818;2022-08-01T07:00:31;4.70;;;2.13;;
45962;SDS011;31669;49.892;20.818;2022-08-01T07:05:31;2.72;;;2.08;;
45962;SDS011;31669;49.892;20.818;2022-08-01T07:10:32;3.50;;;2.30;;
45962;SDS011;31669;49.892;20.818;2022-08-01T07:15:32;2.97;;;2.28;;
45962;SDS011;31669;49.892;20.818;2022-08-01T07:20:33;5.60;;;2.07;;
45962;SDS011;31669;49.892;20.818;2022-08-01T07:25:33;4.07;;;2.43;;
45962;SDS011;31669;49.892;20.818;2022-08-01T07:30:34;4.70;;;2.85;;
45962;SDS011;31669;49.892;20.818;2022-08-01T07:35:35;1.73;;;1.47;;
45962;SDS011;31669;49.892;20.818;2022-08-01T07:40:38;4.75;;;2.35;;
45962;SDS011;31669;49.892;20.818;2022-08-01T07:45:39;2.77;;;1.27;;
45962;SDS011;31669;49.892;20.818;2022-08-01T07:50:40;3.63;;;2.22;;
45962;SDS011;31669;49.892;20.818;2022-08-01T07:55:41;3.73;;;2.60;;
45962;SDS011;31669;49.892;20.818;2022-08-01T08:00:41;5.85;;;2.85;;
45962;SDS011;31669;49.892;20.818;2022-08-01T08:05:42;2.58;;;1.50;;
45962;SDS011;31669;49.892;20.818;2022-08-01T08:10:42;4.23;;;1.70;;
45962;SDS011;31669;49.892;20.818;2022-08-01T08:15:43;3.42;;;1.52;;
45962;SDS011;31669;49.892;20.818;2022-08-01T08:20:44;0.63;;;0.53;;
45962;SDS011;31669;49.892;20.818;2022-08-01T08:25:45;4.75;;;1.92;;
45962;SDS011;31669;49.892;20.818;2022-08-01T08:30:45;6.53;;;1.97;;
45962;SDS011;31669;49.892;20.818;2022-08-01T08:35:46;3.93;;;2.37;;
45962;SDS011;31669;49.892;20.818;2022-08-01T08:40:47;3.90;;;1.80;;
45962;SDS011;31669;49.892;20.818;2022-08-01T08:45:48;5.68;;;3.25;;
45962;SDS011;31669;49.892;20.818;2022-08-01T08:50:48;3.15;;;2.03;;
45962;SDS011;31669;49.892;20.818;2022-08-01T09:00:50;7.18;;;3.53;;
45962;SDS011;31669;49.892;20.818;2022-08-01T09:05:51;2.70;;;2.50;;
45962;SDS011;31669;49.892;20.818;2022-08-01T09:10:52;2.07;;;1.93;;
45962;SDS011;31669;49.892;20.818;2022-08-01T09:15:53;3.75;;;2.65;;
45962;SDS011;31669;49.892;20.818;2022-08-01T09:26:16;4.95;;;3.15;;
45962;SDS011;31669;49.892;20.818;2022-08-01T09:31:18;8.13;;;2.35;;
45962;SDS011;31669;49.892;20.818;2022-08-01T09:36:19;4.32;;;2.40;;
45962;SDS011;31669;49.892;20.818;2022-08-01T09:41:30;2.58;;;2.08;;
45962;SDS011;31669;49.892;20.818;2022-08-01T09:46:31;7.63;;;2.53;;
45962;SDS011;31669;49.892;20.818;2022-08-01T09:51:33;3.37;;;2.53;;
45962;SDS011;31669;49.892;20.818;2022-08-01T09:56:37;3.45;;;2.45;;
45962;SDS011;31669;49.892;20.818;2022-08-01T10:01:45;1.63;;;1.25;;
45962;SDS011;31669;49.892;20.818;2022-08-01T10:06:47;1.55;;;1.45;;
45962;SDS011;31669;49.892;20.818;2022-08-01T10:11:49;1.58;;;1.30;;
45962;SDS011;31669;49.892;20.818;2022-08-01T10:16:51;6.72;;;1.33;;
45962;SDS011;31669;49.892;20.818;2022-08-01T10:21:53;1.30;;;1.20;;
45962;SDS011;31669;49.892;20.818;2022-08-01T10:26:58;2.38;;;1.23;;
45962;SDS011;31669;49.892;20.818;2022-08-01T10:32:05;2.50;;;1.23;;
45962;SDS011;31669;49.892;20.818;2022-08-01T10:37:06;2.28;;;1.48;;
45962;SDS011;31669;49.892;20.818;2022-08-01T10:42:09;2.75;;;1.05;;
45962;SDS011;31669;49.892;20.818;2022-08-01T10:47:10;1.42;;;1.10;;
45962;SDS011;31669;49.892;20.818;2022-08-01T10:52:15;1.50;;;1.10;;
45962;SDS011;31669;49.892;20.818;2022-08-01T10:57:16;3.63;;;1.40;;
45962;SDS011;31669;49.892;20.818;2022-08-01T11:02:25;1.27;;;1.17;;
45962;SDS011;31669;49.892;20.818;2022-08-01T11:07:35;1.23;;;0.90;;
45962;SDS011;31669;49.892;20.818;2022-08-01T11:12:38;3.40;;;1.48;;
45962;SDS011;31669;49.892;20.818;2022-08-01T11:17:40;1.73;;;1.40;;
45962;SDS011;31669;49.892;20.818;2022-08-01T11:23:33;2.92;;;1.40;;
45962;SDS011;31669;49.892;20.818;2022-08-01T11:38:22;1.87;;;1.20;;
45962;SDS011;31669;49.892;20.818;2022-08-01T11:43:23;1.98;;;1.60;;
45962;SDS011;31669;49.892;20.818;2022-08-01T11:48:24;2.47;;;2.00;;
45962;SDS011;31669;49.892;20.818;2022-08-01T11:53:25;1.70;;;1.48;;
45962;SDS011;31669;49.892;20.818;2022-08-01T11:58:26;1.65;;;1.48;;
45962;SDS011;31669;49.892;20.818;2022-08-01T12:03:31;1.15;;;1.00;;
45962;SDS011;31669;49.892;20.818;2022-08-01T12:08:32;1.55;;;1.10;;
45962;SDS011;31669;49.892;20.818;2022-08-01T12:13:41;2.80;;;1.30;;
45962;SDS011;31669;49.892;20.818;2022-08-01T12:18:42;1.48;;;1.33;;
45962;SDS011;31669;49.892;20.818;2022-08-01T12:28:44;1.05;;;0.95;;
45962;SDS011;31669;49.892;20.818;2022-08-01T12:33:44;1.37;;;1.17;;
45962;SDS011;31669;49.892;20.818;2022-08-01T12:38:45;8.37;;;1.53;;
45962;SDS011;31669;49.892;20.818;2022-08-01T12:43:52;3.45;;;1.73;;
45962;SDS011;31669;49.892;20.818;2022-08-01T12:48:52;3.38;;;1.50;;
45962;SDS011;31669;49.892;20.818;2022-08-01T12:53:53;3.53;;;2.13;;
45962;SDS011;31669;49.892;20.818;2022-08-01T12:58:54;2.93;;;1.43;;
45962;SDS011;31669;49.892;20.818;2022-08-01T13:04:01;2.63;;;1.38;;
45962;SDS011;31669;49.892;20.818;2022-08-01T13:09:05;1.50;;;1.25;;
45962;SDS011;31669;49.892;20.818;2022-08-01T13:14:06;1.90;;;1.40;;
45962;SDS011;31669;49.892;20.818;2022-08-01T13:19:06;3.25;;;2.30;;
45962;SDS011;31669;49.892;20.818;2022-08-01T13:24:11;4.88;;;1.80;;
45962;SDS011;31669;49.892;20.818;2022-08-01T13:29:18;3.03;;;1.90;;
45962;SDS011;31669;49.892;20.818;2022-08-01T13:34:29;3.70;;;2.30;;
45962;SDS011;31669;49.892;20.818;2022-08-01T13:39:29;4.30;;;1.83;;
45962;SDS011;31669;49.892;20.818;2022-08-01T13:44:46;2.85;;;1.50;;
45962;SDS011;31669;49.892;20.818;2022-08-01T13:49:47;4.80;;;2.58;;
45962;SDS011;31669;49.892;20.818;2022-08-01T13:54:47;7.13;;;2.20;;
45962;SDS011;31669;49.892;20.818;2022-08-01T13:59:47;2.07;;;1.50;;
45962;SDS011;31669;49.892;20.818;2022-08-01T14:04:48;2.45;;;1.30;;
45962;SDS011;31669;49.892;20.818;2022-08-01T14:09:48;2.17;;;1.40;;
45962;SDS011;31669;49.892;20.818;2022-08-01T14:14:49;1.60;;;1.50;;
45962;SDS011;31669;49.892;20.818;2022-08-01T14:19:50;1.20;;;1.03;;
45962;SDS011;31669;49.892;20.818;2022-08-01T14:24:50;3.38;;;2.10;;
45962;SDS011;31669;49.892;20.818;2022-08-01T14:29:51;0.60;;;0.53;;
45962;SDS011;31669;49.892;20.818;2022-08-01T14:34:51;1.02;;;0.90;;
45962;SDS011;31669;49.892;20.818;2022-08-01T14:40:10;1.80;;;1.55;;
45962;SDS011;31669;49.892;20.818;2022-08-01T14:45:12;2.53;;;1.35;;
45962;SDS011;31669;49.892;20.818;2022-08-01T14:50:13;1.17;;;1.00;;
45962;SDS011;31669;49.892;20.818;2022-08-01T14:55:14;2.50;;;1.33;;
45962;SDS011;31669;49.892;20.818;2022-08-01T15:00:15;1.97;;;0.70;;
45962;SDS011;31669;49.892;20.818;2022-08-01T15:05:15;1.63;;;0.82;;
45962;SDS011;31669;49.892;20.818;2022-08-01T15:10:16;4.75;;;0.82;;
45962;SDS011;31669;49.892;20.818;2022-08-01T15:15:16;0.93;;;0.93;;
45962;SDS011;31669;49.892;20.818;2022-08-01T15:20:17;2.00;;;1.42;;
45962;SDS011;31669;49.892;20.818;2022-08-01T15:25:18;2.57;;;1.10;;
45962;SDS011;31669;49.892;20.818;2022-08-01T15:30:18;2.47;;;1.20;;
45962;SDS011;31669;49.892;20.818;2022-08-01T15:35:19;1.30;;;1.13;;
45962;SDS011;31669;49.892;20.818;2022-08-01T15:40:20;1.70;;;0.60;;
45962;SDS011;31669;49.892;20.818;2022-08-01T15:45:21;1.05;;;0.98;;
45962;SDS011;31669;49.892;20.818;2022-08-01T15:50:22;1.45;;;0.93;;
45962;SDS011;31669;49.892;20.818;2022-08-01T15:55:22;1.15;;;0.88;;
45962;SDS011;31669;49.892;20.818;2022-08-01T16:00:23;1.30;;;1.17;;
45962;SDS011;31669;49.892;20.818;2022-08-01T16:05:23;3.50;;;1.40;;
45962;SDS011;31669;49.892;20.818;2022-08-01T16:15:25;2.28;;;1.35;;
45962;SDS011;31669;49.892;20.818;2022-08-01T16:20:26;2.45;;;1.45;;
45962;SDS011;31669;49.892;20.818;2022-08-01T16:25:27;2.13;;;1.45;;
45962;SDS011;31669;49.892;20.818;2022-08-01T16:30:27;1.95;;;1.50;;
45962;SDS011;31669;49.892;20.818;2022-08-01T16:35:28;3.07;;;1.20;;
45962;SDS011;31669;49.892;20.818;2022-08-01T16:40:28;1.90;;;1.42;;
45962;SDS011;31669;49.892;20.818;2022-08-01T16:45:29;1.40;;;1.17;;
45962;SDS011;31669;49.892;20.818;2022-08-01T16:50:29;1.67;;;1.07;;
45962;SDS011;31669;49.892;20.818;2022-08-01T16:55:30;1.60;;;1.03;;
45962;SDS011;31669;49.892;20.818;2022-08-01T17:00:32;2.33;;;1.35;;
45962;SDS011;31669;49.892;20.818;2022-08-01T17:05:32;2.22;;;1.40;;
45962;SDS011;31669;49.892;20.818;2022-08-01T17:10:33;1.60;;;1.27;;
45962;SDS011;31669;49.892;20.818;2022-08-01T17:15:34;2.75;;;1.60;;
45962;SDS011;31669;49.892;20.818;2022-08-01T17:25:36;1.27;;;0.97;;
45962;SDS011;31669;49.892;20.818;2022-08-01T17:30:37;2.30;;;1.70;;
45962;SDS011;31669;49.892;20.818;2022-08-01T17:35:40;3.08;;;1.58;;
45962;SDS011;31669;49.892;20.818;2022-08-01T17:40:40;2.23;;;1.03;;
45962;SDS011;31669;49.892;20.818;2022-08-01T17:45:41;1.15;;;1.02;;
45962;SDS011;31669;49.892;20.818;2022-08-01T17:50:45;1.75;;;1.20;;
45962;SDS011;31669;49.892;20.818;2022-08-01T18:00:46;1.27;;;1.05;;
45962;SDS011;31669;49.892;20.818;2022-08-01T18:05:47;1.48;;;0.98;;
45962;SDS011;31669;49.892;20.818;2022-08-01T18:10:47;1.40;;;0.93;;
45962;SDS011;31669;49.892;20.818;2022-08-01T18:15:48;1.03;;;1.00;;
45962;SDS011;31669;49.892;20.818;2022-08-01T18:20:48;3.17;;;1.57;;
45962;SDS011;31669;49.892;20.818;2022-08-01T18:25:49;1.50;;;1.23;;
45962;SDS011;31669;49.892;20.818;2022-08-01T18:30:50;5.73;;;1.07;;
45962;SDS011;31669;49.892;20.818;2022-08-01T18:35:50;1.83;;;0.88;;
45962;SDS011;31669;49.892;20.818;2022-08-01T18:40:51;1.37;;;1.13;;
45962;SDS011;31669;49.892;20.818;2022-08-01T18:45:52;1.73;;;0.77;;
45962;SDS011;31669;49.892;20.818;2022-08-01T18:50:52;3.13;;;1.67;;
45962;SDS011;31669;49.892;20.818;2022-08-01T18:55:53;2.73;;;1.80;;
45962;SDS011;31669;49.892;20.818;2022-08-01T19:00:53;7.13;;;1.90;;
45962;SDS011;31669;49.892;20.818;2022-08-01T19:05:54;6.30;;;2.83;;
45962;SDS011;31669;49.892;20.818;2022-08-01T19:10:55;2.60;;;2.00;;
45962;SDS011;31669;49.892;20.818;2022-08-01T19:15:56;7.37;;;2.03;;
45962;SDS011;31669;49.892;20.818;2022-08-01T19:21:00;1.65;;;1.55;;
45962;SDS011;31669;49.892;20.818;2022-08-01T19:26:04;3.00;;;1.95;;
45962;SDS011;31669;49.892;20.818;2022-08-01T19:31:09;1.65;;;1.13;;
45962;SDS011;31669;49.892;20.818;2022-08-01T19:36:17;1.10;;;1.05;;
45962;SDS011;31669;49.892;20.818;2022-08-01T19:41:18;1.77;;;1.42;;
45962;SDS011;31669;49.892;20.818;2022-08-01T19:46:18;6.43;;;1.70;;
45962;SDS011;31669;49.892;20.818;2022-08-01T19:56:20;3.00;;;1.38;;
45962;SDS011;31669;49.892;20.818;2022-08-01T20:01:21;3.30;;;1.73;;
45962;SDS011;31669;49.892;20.818;2022-08-01T20:06:22;3.60;;;1.88;;
45962;SDS011;31669;49.892;20.818;2022-08-01T20:11:23;1.23;;;1.13;;
45962;SDS011;31669;49.892;20.818;2022-08-01T20:16:29;5.78;;;1.80;;
45962;SDS011;31669;49.892;20.818;2022-08-01T20:21:33;3.40;;;1.55;;
45962;SDS011;31669;49.892;20.818;2022-08-01T20:26:34;3.30;;;1.85;;
45962;SDS011;31669;49.892;20.818;2022-08-01T20:31:36;3.38;;;2.22;;
45962;SDS011;31669;49.892;20.818;2022-08-01T20:36:38;10.75;;;1.92;;
45962;SDS011;31669;49.892;20.818;2022-08-01T20:41:39;3.50;;;1.77;;
45962;SDS011;31669;49.892;20.818;2022-08-01T20:46:40;3.40;;;1.75;;
45962;SDS011;31669;49.892;20.818;2022-08-01T20:51:41;4.15;;;1.75;;
45962;SDS011;31669;49.892;20.818;2022-08-01T20:56:56;3.83;;;1.73;;
45962;SDS011;31669;49.892;20.818;2022-08-01T21:07:27;4.97;;;2.80;;
45962;SDS011;31669;49.892;20.818;2022-08-01T21:12:31;6.90;;;3.55;;
45962;SDS011;31669;49.892;20.818;2022-08-01T21:17:39;10.65;;;3.45;;
45962;SDS011;31669;49.892;20.818;2022-08-01T21:22:55;6.68;;;3.45;;
45962;SDS011;31669;49.892;20.818;2022-08-01T21:28:00;3.95;;;3.03;;
45962;SDS011;31669;49.892;20.818;2022-08-01T21:33:01;3.67;;;2.30;;
45962;SDS011;31669;49.892;20.818;2022-08-01T21:38:03;9.60;;;2.80;;
45962;SDS011;31669;49.892;20.818;2022-08-01T21:43:04;4.38;;;2.78;;
45962;SDS011;31669;49.892;20.818;2022-08-01T21:48:07;5.35;;;3.50;;
45962;SDS011;31669;49.892;20.818;2022-08-01T21:53:24;3.83;;;2.25;;
45962;SDS011;31669;49.892;20.818;2022-08-01T22:03:47;3.92;;;2.97;;
45962;SDS011;31669;49.892;20.818;2022-08-01T22:08:51;4.22;;;2.65;;
45962;SDS011;31669;49.892;20.818;2022-08-01T22:13:53;3.90;;;3.05;;
45962;SDS011;31669;49.892;20.818;2022-08-01T22:18:56;3.28;;;2.60;;
45962;SDS011;31669;49.892;20.818;2022-08-01T22:23:57;6.47;;;2.83;;
45962;SDS011;31669;49.892;20.818;2022-08-01T22:28:58;5.32;;;2.83;;
45962;SDS011;31669;49.892;20.818;2022-08-01T22:33:58;4.77;;;2.37;;
45962;SDS011;31669;49.892;20.818;2022-08-01T22:38:59;4.10;;;2.05;;
45962;SDS011;31669;49.892;20.818;2022-08-01T22:44:07;2.40;;;2.00;;
45962;SDS011;31669;49.892;20.818;2022-08-01T22:49:14;4.47;;;2.67;;
45962;SDS011;31669;49.892;20.818;2022-08-01T22:54:20;3.78;;;2.65;;
45962;SDS011;31669;49.892;20.818;2022-08-01T22:59:32;4.22;;;2.55;;
45962;SDS011;31669;49.892;20.818;2022-08-01T23:04:38;4.28;;;2.53;;
45962;SDS011;31669;49.892;20.818;2022-08-01T23:09:38;2.83;;;2.45;;
45962;SDS011;31669;49.892;20.818;2022-08-01T23:14:40;3.38;;;2.95;;
45962;SDS011;31669;49.892;20.818;2022-08-01T23:19:41;3.78;;;2.47;;
45962;SDS011;31669;49.892;20.818;2022-08-01T23:24:42;3.53;;;2.97;;
45962;SDS011;31669;49.892;20.818;2022-08-01T23:29:45;3.67;;;2.80;;
45962;SDS011;31669;49.892;20.818;2022-08-01T23:34:47;5.68;;;2.95;;
45962;SDS011;31669;49.892;20.818;2022-08-01T23:39:47;7.30;;;3.10;;
45962;SDS011;31669;49.892;20.818;2022-08-01T23:44:48;4.50;;;2.80;;
45962;SDS011;31669;49.892;20.818;2022-08-01T23:49:49;2.63;;;2.42;;
45962;SDS011;31669;49.892;20.818;2022-08-01T23:54:49;2.92;;;2.33;;
45962;SDS011;31669;49.892;20.818;2022-08-01T23:59:50;3.17;;;2.72;;
